sensor_id;sensor_type;location;lat;lon;timestamp;temperature;humidity
13806;DHT22;6974;53.606;9.872;2023-06-14T00:01:54;18.70;99.90
13806;DHT22;6974;53.606;9.872;2023-06-14T00:04:21;18.70;99.90
13806;DHT22;6974;53.606;9.872;2023-06-14T00:06:50;18.70;99.90
13806;DHT22;6974;53.606;9.872;2023-06-14T00:09:18;18.60;99.90
13806;DHT22;6974;53.606;9.872;2023-06-14T00:11:44;18.70;99.90
13806;DHT22;6974;53.606;9.872;2023-06-14T00:14:11;18.70;99.90
13806;DHT22;6974;53.606;9.872;2023-06-14T00:16:40;18.60;99.90
13806;DHT22;6974;53.606;9.872;2023-06-14T00:19:08;18.60;99.90
13806;DHT22;6974;53.606;9.872;2023-06-14T00:21:36;18.50;99.90
13806;DHT22;6974;53.606;9.872;2023-06-14T00:24:04;18.50;99.90
13806;DHT22;6974;53.606;9.872;2023-06-14T00:26:31;18.50;99.90
13806;DHT22;6974;53.606;9.872;2023-06-14T00:28:57;18.50;99.90
13806;DHT22;6974;53.606;9.872;2023-06-14T00:31:24;18.50;99.90
13806;DHT22;6974;53.606;9.872;2023-06-14T00:33:52;18.40;99.90
13806;DHT22;6974;53.606;9.872;2023-06-14T00:36:19;18.40;99.90
13806;DHT22;6974;53.606;9.872;2023-06-14T00:38:46;18.50;99.90
13806;DHT22;6974;53.606;9.872;2023-06-14T00:41:13;18.50;99.90
13806;DHT22;6974;53.606;9.872;2023-06-14T00:43:40;18.40;99.90
13806;DHT22;6974;53.606;9.872;2023-06-14T00:46:07;18.40;99.90
13806;DHT22;6974;53.606;9.872;2023-06-14T00:48:34;18.30;99.90
13806;DHT22;6974;53.606;9.872;2023-06-14T00:51:04;18.30;99.90
13806;DHT22;6974;53.606;9.872;2023-06-14T00:53:31;18.40;99.90
13806;DHT22;6974;53.606;9.872;2023-06-14T00:56:00;18.30;99.90
13806;DHT22;6974;53.606;9.872;2023-06-14T00:58:27;18.20;99.90
13806;DHT22;6974;53.606;9.872;2023-06-14T01:00:54;18.20;99.90
13806;DHT22;6974;53.606;9.872;2023-06-14T01:03:21;18.20;99.90
13806;DHT22;6974;53.606;9.872;2023-06-14T01:05:51;18.20;99.90
13806;DHT22;6974;53.606;9.872;2023-06-14T01:08:26;18.30;99.90
13806;DHT22;6974;53.606;9.872;2023-06-14T01:11:01;18.20;99.90
13806;DHT22;6974;53.606;9.872;2023-06-14T01:13:34;18.10;99.90
13806;DHT22;6974;53.606;9.872;2023-06-14T01:16:02;18.10;99.90
13806;DHT22;6974;53.606;9.872;2023-06-14T01:18:29;18.10;99.90
13806;DHT22;6974;53.606;9.872;2023-06-14T01:20:56;18.10;99.90
13806;DHT22;6974;53.606;9.872;2023-06-14T01:23:25;18.00;99.90
13806;DHT22;6974;53.606;9.872;2023-06-14T01:25:58;18.00;99.90
13806;DHT22;6974;53.606;9.872;2023-06-14T01:28:27;18.10;99.90
13806;DHT22;6974;53.606;9.872;2023-06-14T01:31:00;17.90;99.90
13806;DHT22;6974;53.606;9.872;2023-06-14T01:33:30;18.00;99.90
13806;DHT22;6974;53.606;9.872;2023-06-14T01:36:00;18.00;99.90
13806;DHT22;6974;53.606;9.872;2023-06-14T01:38:30;18.00;99.90
13806;DHT22;6974;53.606;9.872;2023-06-14T01:40:58;17.90;99.90
13806;DHT22;6974;53.606;9.872;2023-06-14T01:43:30;17.80;99.90
13806;DHT22;6974;53.606;9.872;2023-06-14T01:45:57;17.80;99.90
13806;DHT22;6974;53.606;9.872;2023-06-14T01:48:26;17.80;99.90
13806;DHT22;6974;53.606;9.872;2023-06-14T01:50:53;17.80;99.90
13806;DHT22;6974;53.606;9.872;2023-06-14T01:53:20;17.80;99.90
13806;DHT22;6974;53.606;9.872;2023-06-14T01:55:48;17.70;99.90
13806;DHT22;6974;53.606;9.872;2023-06-14T01:58:15;17.70;99.90
13806;DHT22;6974;53.606;9.872;2023-06-14T02:00:43;17.60;99.90
13806;DHT22;6974;53.606;9.872;2023-06-14T02:03:10;17.60;99.90
13806;DHT22;6974;53.606;9.872;2023-06-14T02:05:38;17.60;99.90
13806;DHT22;6974;53.606;9.872;2023-06-14T02:08:05;17.50;99.90
13806;DHT22;6974;53.606;9.872;2023-06-14T02:10:32;17.50;99.90
13806;DHT22;6974;53.606;9.872;2023-06-14T02:13:00;17.50;99.90
13806;DHT22;6974;53.606;9.872;2023-06-14T02:15:27;17.50;99.90
13806;DHT22;6974;53.606;9.872;2023-06-14T02:18:00;17.40;99.90
13806;DHT22;6974;53.606;9.872;2023-06-14T02:20:27;17.50;99.90
13806;DHT22;6974;53.606;9.872;2023-06-14T02:22:54;17.40;99.90
13806;DHT22;6974;53.606;9.872;2023-06-14T02:25:21;17.40;99.90
13806;DHT22;6974;53.606;9.872;2023-06-14T02:27:48;17.40;99.90
13806;DHT22;6974;53.606;9.872;2023-06-14T02:30:16;17.40;99.90
13806;DHT22;6974;53.606;9.872;2023-06-14T02:32:43;17.40;99.90
13806;DHT22;6974;53.606;9.872;2023-06-14T02:35:10;17.40;99.90
13806;DHT22;6974;53.606;9.872;2023-06-14T02:37:37;17.30;99.90
13806;DHT22;6974;53.606;9.872;2023-06-14T02:40:05;17.30;99.90
13806;DHT22;6974;53.606;9.872;2023-06-14T02:42:33;17.40;99.90
13806;DHT22;6974;53.606;9.872;2023-06-14T02:45:00;17.40;99.90
13806;DHT22;6974;53.606;9.872;2023-06-14T02:47:29;17.30;99.90
13806;DHT22;6974;53.606;9.872;2023-06-14T02:49:56;17.30;99.90
13806;DHT22;6974;53.606;9.872;2023-06-14T02:52:22;17.30;99.90
13806;DHT22;6974;53.606;9.872;2023-06-14T02:54:50;17.30;99.90
13806;DHT22;6974;53.606;9.872;2023-06-14T02:57:17;17.30;99.90
13806;DHT22;6974;53.606;9.872;2023-06-14T02:59:44;17.20;99.90
13806;DHT22;6974;53.606;9.872;2023-06-14T03:02:11;17.20;99.90
13806;DHT22;6974;53.606;9.872;2023-06-14T03:04:39;17.10;99.90
13806;DHT22;6974;53.606;9.872;2023-06-14T03:07:07;17.10;99.90
13806;DHT22;6974;53.606;9.872;2023-06-14T03:09:35;17.10;99.90
13806;DHT22;6974;53.606;9.872;2023-06-14T03:12:04;17.00;99.90
13806;DHT22;6974;53.606;9.872;2023-06-14T03:14:32;17.10;99.90
13806;DHT22;6974;53.606;9.872;2023-06-14T03:17:00;17.10;99.90
13806;DHT22;6974;53.606;9.872;2023-06-14T03:19:27;17.10;99.90
13806;DHT22;6974;53.606;9.872;2023-06-14T03:21:55;17.10;99.90
13806;DHT22;6974;53.606;9.872;2023-06-14T03:24:23;17.20;99.90
13806;DHT22;6974;53.606;9.872;2023-06-14T03:26:52;17.20;99.90
13806;DHT22;6974;53.606;9.872;2023-06-14T03:29:19;17.20;99.90
13806;DHT22;6974;53.606;9.872;2023-06-14T03:31:57;17.20;99.90
13806;DHT22;6974;53.606;9.872;2023-06-14T03:34:24;17.20;99.90
13806;DHT22;6974;53.606;9.872;2023-06-14T03:36:51;17.20;99.90
13806;DHT22;6974;53.606;9.872;2023-06-14T03:39:19;17.20;99.90
13806;DHT22;6974;53.606;9.872;2023-06-14T03:41:46;17.10;99.90
13806;DHT22;6974;53.606;9.872;2023-06-14T03:44:15;17.10;99.90
13806;DHT22;6974;53.606;9.872;2023-06-14T03:46:43;17.10;99.90
13806;DHT22;6974;53.606;9.872;2023-06-14T03:49:10;17.10;99.90
13806;DHT22;6974;53.606;9.872;2023-06-14T03:51:37;17.10;99.90
13806;DHT22;6974;53.606;9.872;2023-06-14T03:54:05;17.10;99.90
13806;DHT22;6974;53.606;9.872;2023-06-14T03:56:33;17.10;99.90
13806;DHT22;6974;53.606;9.872;2023-06-14T03:59:00;17.10;99.90
13806;DHT22;6974;53.606;9.872;2023-06-14T04:01:27;17.10;99.90
13806;DHT22;6974;53.606;9.872;2023-06-14T04:03:56;17.10;99.90
13806;DHT22;6974;53.606;9.872;2023-06-14T04:06:23;17.10;99.90
13806;DHT22;6974;53.606;9.872;2023-06-14T04:08:58;17.20;99.90
13806;DHT22;6974;53.606;9.872;2023-06-14T04:11:27;17.20;99.90
13806;DHT22;6974;53.606;9.872;2023-06-14T04:13:56;17.20;99.90
13806;DHT22;6974;53.606;9.872;2023-06-14T04:16:23;17.20;99.90
13806;DHT22;6974;53.606;9.872;2023-06-14T04:18:50;17.20;99.90
13806;DHT22;6974;53.606;9.872;2023-06-14T04:21:17;17.20;99.90
13806;DHT22;6974;53.606;9.872;2023-06-14T04:23:44;17.20;99.90
13806;DHT22;6974;53.606;9.872;2023-06-14T04:26:11;17.30;99.90
13806;DHT22;6974;53.606;9.872;2023-06-14T04:28:38;17.30;99.90
13806;DHT22;6974;53.606;9.872;2023-06-14T04:31:07;17.40;99.90
13806;DHT22;6974;53.606;9.872;2023-06-14T04:33:35;17.40;99.90
13806;DHT22;6974;53.606;9.872;2023-06-14T04:36:09;17.40;99.90
13806;DHT22;6974;53.606;9.872;2023-06-14T04:38:37;17.40;99.90
13806;DHT22;6974;53.606;9.872;2023-06-14T04:41:04;17.40;99.90
13806;DHT22;6974;53.606;9.872;2023-06-14T04:43:31;17.50;99.90
13806;DHT22;6974;53.606;9.872;2023-06-14T04:46:04;17.50;99.90
13806;DHT22;6974;53.606;9.872;2023-06-14T04:48:36;17.50;99.90
13806;DHT22;6974;53.606;9.872;2023-06-14T04:51:06;17.50;99.90
13806;DHT22;6974;53.606;9.872;2023-06-14T04:53:33;17.60;99.90
13806;DHT22;6974;53.606;9.872;2023-06-14T04:56:00;17.60;99.90
13806;DHT22;6974;53.606;9.872;2023-06-14T04:58:28;17.70;99.90
13806;DHT22;6974;53.606;9.872;2023-06-14T05:00:55;17.70;99.90
13806;DHT22;6974;53.606;9.872;2023-06-14T05:03:22;17.70;99.90
13806;DHT22;6974;53.606;9.872;2023-06-14T05:05:51;17.70;99.90
13806;DHT22;6974;53.606;9.872;2023-06-14T05:08:18;17.80;99.90
13806;DHT22;6974;53.606;9.872;2023-06-14T05:10:45;17.80;99.90
13806;DHT22;6974;53.606;9.872;2023-06-14T05:13:12;17.90;99.90
13806;DHT22;6974;53.606;9.872;2023-06-14T05:15:39;17.90;99.90
13806;DHT22;6974;53.606;9.872;2023-06-14T05:18:06;17.90;99.90
13806;DHT22;6974;53.606;9.872;2023-06-14T05:20:35;17.90;99.90
13806;DHT22;6974;53.606;9.872;2023-06-14T05:23:04;17.90;99.90
13806;DHT22;6974;53.606;9.872;2023-06-14T05:25:30;18.00;99.90
13806;DHT22;6974;53.606;9.872;2023-06-14T05:27:57;18.00;99.90
13806;DHT22;6974;53.606;9.872;2023-06-14T05:30:24;18.00;99.90
13806;DHT22;6974;53.606;9.872;2023-06-14T05:32:51;18.10;99.90
13806;DHT22;6974;53.606;9.872;2023-06-14T05:35:20;18.10;99.90
13806;DHT22;6974;53.606;9.872;2023-06-14T05:37:48;18.10;99.90
13806;DHT22;6974;53.606;9.872;2023-06-14T05:40:17;18.10;99.90
13806;DHT22;6974;53.606;9.872;2023-06-14T05:42:44;18.20;99.90
13806;DHT22;6974;53.606;9.872;2023-06-14T05:45:10;18.30;99.90
13806;DHT22;6974;53.606;9.872;2023-06-14T05:47:37;18.30;99.90
13806;DHT22;6974;53.606;9.872;2023-06-14T05:50:05;18.40;99.90
13806;DHT22;6974;53.606;9.872;2023-06-14T05:52:33;18.40;99.90
13806;DHT22;6974;53.606;9.872;2023-06-14T05:55:00;18.50;99.90
13806;DHT22;6974;53.606;9.872;2023-06-14T05:57:29;18.50;99.90
13806;DHT22;6974;53.606;9.872;2023-06-14T05:59:56;18.60;99.90
13806;DHT22;6974;53.606;9.872;2023-06-14T06:02:22;18.60;99.90
13806;DHT22;6974;53.606;9.872;2023-06-14T06:04:49;18.70;99.90
13806;DHT22;6974;53.606;9.872;2023-06-14T06:07:16;18.80;99.90
13806;DHT22;6974;53.606;9.872;2023-06-14T06:09:43;18.80;99.90
13806;DHT22;6974;53.606;9.872;2023-06-14T06:12:10;18.90;99.90
13806;DHT22;6974;53.606;9.872;2023-06-14T06:14:38;18.90;99.90
13806;DHT22;6974;53.606;9.872;2023-06-14T06:17:05;19.00;99.90
13806;DHT22;6974;53.606;9.872;2023-06-14T06:19:32;19.00;99.90
13806;DHT22;6974;53.606;9.872;2023-06-14T06:21:59;18.90;99.90
13806;DHT22;6974;53.606;9.872;2023-06-14T06:24:26;19.00;99.90
13806;DHT22;6974;53.606;9.872;2023-06-14T06:26:53;19.00;99.90
13806;DHT22;6974;53.606;9.872;2023-06-14T06:29:20;19.10;99.90
13806;DHT22;6974;53.606;9.872;2023-06-14T06:31:48;19.20;99.90
13806;DHT22;6974;53.606;9.872;2023-06-14T06:34:15;19.20;99.90
13806;DHT22;6974;53.606;9.872;2023-06-14T06:36:42;19.30;99.90
13806;DHT22;6974;53.606;9.872;2023-06-14T06:39:09;19.40;99.90
13806;DHT22;6974;53.606;9.872;2023-06-14T06:41:38;19.40;99.90
13806;DHT22;6974;53.606;9.872;2023-06-14T06:44:05;19.60;99.90
13806;DHT22;6974;53.606;9.872;2023-06-14T06:46:33;19.50;99.90
13806;DHT22;6974;53.606;9.872;2023-06-14T06:49:01;19.60;99.90
13806;DHT22;6974;53.606;9.872;2023-06-14T06:51:28;19.60;99.90
13806;DHT22;6974;53.606;9.872;2023-06-14T06:53:55;19.60;99.90
13806;DHT22;6974;53.606;9.872;2023-06-14T06:56:22;19.60;99.90
13806;DHT22;6974;53.606;9.872;2023-06-14T06:58:49;19.80;99.90
13806;DHT22;6974;53.606;9.872;2023-06-14T07:01:16;19.80;99.90
13806;DHT22;6974;53.606;9.872;2023-06-14T07:03:44;19.90;99.90
13806;DHT22;6974;53.606;9.872;2023-06-14T07:06:12;20.10;99.90
13806;DHT22;6974;53.606;9.872;2023-06-14T07:08:39;20.20;99.90
13806;DHT22;6974;53.606;9.872;2023-06-14T07:11:06;20.20;99.90
13806;DHT22;6974;53.606;9.872;2023-06-14T07:13:33;20.20;99.90
13806;DHT22;6974;53.606;9.872;2023-06-14T07:16:01;20.20;99.90
13806;DHT22;6974;53.606;9.872;2023-06-14T07:18:28;20.30;99.90
13806;DHT22;6974;53.606;9.872;2023-06-14T07:20:55;20.30;99.90
13806;DHT22;6974;53.606;9.872;2023-06-14T07:23:24;20.40;99.90
13806;DHT22;6974;53.606;9.872;2023-06-14T07:25:50;20.40;99.90
13806;DHT22;6974;53.606;9.872;2023-06-14T07:28:17;20.50;99.90
13806;DHT22;6974;53.606;9.872;2023-06-14T07:30:44;20.50;99.90
13806;DHT22;6974;53.606;9.872;2023-06-14T07:33:11;20.50;99.90
13806;DHT22;6974;53.606;9.872;2023-06-14T07:35:39;20.60;99.90
13806;DHT22;6974;53.606;9.872;2023-06-14T07:38:05;20.80;99.90
13806;DHT22;6974;53.606;9.872;2023-06-14T07:40:34;20.80;99.90
13806;DHT22;6974;53.606;9.872;2023-06-14T07:43:01;20.90;99.90
13806;DHT22;6974;53.606;9.872;2023-06-14T07:45:28;21.00;99.90
13806;DHT22;6974;53.606;9.872;2023-06-14T07:47:55;21.00;99.90
13806;DHT22;6974;53.606;9.872;2023-06-14T07:50:22;21.10;99.90
13806;DHT22;6974;53.606;9.872;2023-06-14T07:52:48;21.00;99.90
13806;DHT22;6974;53.606;9.872;2023-06-14T07:55:15;21.10;99.90
13806;DHT22;6974;53.606;9.872;2023-06-14T07:57:44;21.20;99.90
13806;DHT22;6974;53.606;9.872;2023-06-14T08:00:12;21.30;99.90
13806;DHT22;6974;53.606;9.872;2023-06-14T08:02:41;21.30;99.90
13806;DHT22;6974;53.606;9.872;2023-06-14T08:05:09;21.30;99.90
13806;DHT22;6974;53.606;9.872;2023-06-14T08:07:36;21.40;99.90
13806;DHT22;6974;53.606;9.872;2023-06-14T08:10:04;21.50;99.90
13806;DHT22;6974;53.606;9.872;2023-06-14T08:12:32;21.60;99.90
13806;DHT22;6974;53.606;9.872;2023-06-14T08:15:01;21.70;99.90
13806;DHT22;6974;53.606;9.872;2023-06-14T08:17:28;21.70;99.90
13806;DHT22;6974;53.606;9.872;2023-06-14T08:19:55;21.90;99.90
13806;DHT22;6974;53.606;9.872;2023-06-14T08:22:22;22.00;99.90
13806;DHT22;6974;53.606;9.872;2023-06-14T08:24:51;22.00;99.90
13806;DHT22;6974;53.606;9.872;2023-06-14T08:27:19;22.10;99.90
13806;DHT22;6974;53.606;9.872;2023-06-14T08:29:46;22.20;99.90
13806;DHT22;6974;53.606;9.872;2023-06-14T08:32:14;22.30;99.90
13806;DHT22;6974;53.606;9.872;2023-06-14T08:34:41;22.40;99.90
13806;DHT22;6974;53.606;9.872;2023-06-14T08:37:08;22.40;99.90
13806;DHT22;6974;53.606;9.872;2023-06-14T08:39:35;22.40;99.90
13806;DHT22;6974;53.606;9.872;2023-06-14T08:42:02;22.50;99.90
13806;DHT22;6974;53.606;9.872;2023-06-14T08:44:30;22.70;99.90
13806;DHT22;6974;53.606;9.872;2023-06-14T08:46:59;22.80;99.90
13806;DHT22;6974;53.606;9.872;2023-06-14T08:49:27;22.90;99.90
13806;DHT22;6974;53.606;9.872;2023-06-14T08:51:58;22.90;99.90
13806;DHT22;6974;53.606;9.872;2023-06-14T08:54:26;23.00;99.90
13806;DHT22;6974;53.606;9.872;2023-06-14T08:56:55;23.00;99.90
13806;DHT22;6974;53.606;9.872;2023-06-14T08:59:24;23.10;99.90
13806;DHT22;6974;53.606;9.872;2023-06-14T09:01:52;23.10;99.90
13806;DHT22;6974;53.606;9.872;2023-06-14T09:04:20;23.20;99.90
13806;DHT22;6974;53.606;9.872;2023-06-14T09:06:48;23.30;99.90
13806;DHT22;6974;53.606;9.872;2023-06-14T09:09:19;23.50;99.90
13806;DHT22;6974;53.606;9.872;2023-06-14T09:11:46;23.60;99.90
13806;DHT22;6974;53.606;9.872;2023-06-14T09:14:13;23.70;99.90
13806;DHT22;6974;53.606;9.872;2023-06-14T09:16:40;23.80;99.90
13806;DHT22;6974;53.606;9.872;2023-06-14T09:19:07;23.90;99.90
13806;DHT22;6974;53.606;9.872;2023-06-14T09:21:34;23.90;99.90
13806;DHT22;6974;53.606;9.872;2023-06-14T09:24:03;24.00;99.90
13806;DHT22;6974;53.606;9.872;2023-06-14T09:26:31;24.10;99.90
13806;DHT22;6974;53.606;9.872;2023-06-14T09:28:58;24.20;99.90
13806;DHT22;6974;53.606;9.872;2023-06-14T09:31:25;24.30;99.90
13806;DHT22;6974;53.606;9.872;2023-06-14T09:33:57;24.20;99.90
13806;DHT22;6974;53.606;9.872;2023-06-14T09:36:25;24.30;99.90
13806;DHT22;6974;53.606;9.872;2023-06-14T09:38:53;24.30;99.90
13806;DHT22;6974;53.606;9.872;2023-06-14T09:41:27;24.40;99.90
13806;DHT22;6974;53.606;9.872;2023-06-14T09:43:58;24.20;99.90
13806;DHT22;6974;53.606;9.872;2023-06-14T09:46:26;24.10;99.90
13806;DHT22;6974;53.606;9.872;2023-06-14T09:48:53;24.10;99.90
13806;DHT22;6974;53.606;9.872;2023-06-14T09:51:22;24.40;99.90
13806;DHT22;6974;53.606;9.872;2023-06-14T09:53:50;24.60;99.90
13806;DHT22;6974;53.606;9.872;2023-06-14T09:56:25;24.80;99.90
13806;DHT22;6974;53.606;9.872;2023-06-14T09:58:55;24.90;99.90
13806;DHT22;6974;53.606;9.872;2023-06-14T10:01:23;25.10;99.90
13806;DHT22;6974;53.606;9.872;2023-06-14T10:03:51;25.20;99.90
13806;DHT22;6974;53.606;9.872;2023-06-14T10:06:22;25.30;99.90
13806;DHT22;6974;53.606;9.872;2023-06-14T10:08:52;25.50;99.90
13806;DHT22;6974;53.606;9.872;2023-06-14T10:11:21;25.60;99.90
13806;DHT22;6974;53.606;9.872;2023-06-14T10:13:49;25.50;99.90
13806;DHT22;6974;53.606;9.872;2023-06-14T10:16:20;25.50;99.90
13806;DHT22;6974;53.606;9.872;2023-06-14T10:18:53;25.50;99.90
13806;DHT22;6974;53.606;9.872;2023-06-14T10:21:28;25.40;99.90
13806;DHT22;6974;53.606;9.872;2023-06-14T10:24:03;25.60;99.90
13806;DHT22;6974;53.606;9.872;2023-06-14T10:26:31;25.70;99.90
13806;DHT22;6974;53.606;9.872;2023-06-14T10:29:01;25.80;99.90
13806;DHT22;6974;53.606;9.872;2023-06-14T10:31:41;26.00;99.90
13806;DHT22;6974;53.606;9.872;2023-06-14T10:34:08;26.00;99.90
13806;DHT22;6974;53.606;9.872;2023-06-14T10:36:35;26.10;99.90
13806;DHT22;6974;53.606;9.872;2023-06-14T10:39:07;26.10;99.90
13806;DHT22;6974;53.606;9.872;2023-06-14T10:41:36;26.00;99.90
13806;DHT22;6974;53.606;9.872;2023-06-14T10:44:34;25.80;99.90
13806;DHT22;6974;53.606;9.872;2023-06-14T10:47:07;25.50;99.90
13806;DHT22;6974;53.606;9.872;2023-06-14T10:49:42;25.20;99.90
13806;DHT22;6974;53.606;9.872;2023-06-14T10:52:13;25.30;99.90
13806;DHT22;6974;53.606;9.872;2023-06-14T10:55:10;25.20;99.90
13806;DHT22;6974;53.606;9.872;2023-06-14T10:57:39;25.10;99.90
13806;DHT22;6974;53.606;9.872;2023-06-14T11:00:09;25.00;99.90
13806;DHT22;6974;53.606;9.872;2023-06-14T11:05:58;25.20;99.90
13806;DHT22;6974;53.606;9.872;2023-06-14T11:08:42;25.40;99.90
13806;DHT22;6974;53.606;9.872;2023-06-14T11:11:13;25.60;99.90
13806;DHT22;6974;53.606;9.872;2023-06-14T11:13:45;25.80;99.90
13806;DHT22;6974;53.606;9.872;2023-06-14T11:16:15;25.70;99.90
13806;DHT22;6974;53.606;9.872;2023-06-14T11:18:42;25.40;99.90
13806;DHT22;6974;53.606;9.872;2023-06-14T11:21:10;25.20;99.90
13806;DHT22;6974;53.606;9.872;2023-06-14T11:23:37;25.50;99.90
13806;DHT22;6974;53.606;9.872;2023-06-14T11:26:04;25.80;99.90
13806;DHT22;6974;53.606;9.872;2023-06-14T11:28:38;26.10;99.90
13806;DHT22;6974;53.606;9.872;2023-06-14T11:31:06;26.40;99.90
13806;DHT22;6974;53.606;9.872;2023-06-14T11:33:34;26.60;99.90
13806;DHT22;6974;53.606;9.872;2023-06-14T11:36:02;26.60;99.90
13806;DHT22;6974;53.606;9.872;2023-06-14T11:38:30;26.40;99.90
13806;DHT22;6974;53.606;9.872;2023-06-14T11:40:59;26.20;99.90
13806;DHT22;6974;53.606;9.872;2023-06-14T11:43:26;26.00;99.90
13806;DHT22;6974;53.606;9.872;2023-06-14T11:45:54;25.90;99.90
13806;DHT22;6974;53.606;9.872;2023-06-14T11:48:21;26.00;99.90
13806;DHT22;6974;53.606;9.872;2023-06-14T11:50:51;26.00;99.90
13806;DHT22;6974;53.606;9.872;2023-06-14T11:53:18;25.90;99.90
13806;DHT22;6974;53.606;9.872;2023-06-14T11:55:45;26.00;99.90
13806;DHT22;6974;53.606;9.872;2023-06-14T11:58:13;26.00;99.90
13806;DHT22;6974;53.606;9.872;2023-06-14T12:00:41;26.00;99.90
13806;DHT22;6974;53.606;9.872;2023-06-14T12:03:08;26.20;99.90
13806;DHT22;6974;53.606;9.872;2023-06-14T12:05:35;26.30;99.90
13806;DHT22;6974;53.606;9.872;2023-06-14T12:08:04;26.30;99.90
13806;DHT22;6974;53.606;9.872;2023-06-14T12:10:40;26.10;99.90
13806;DHT22;6974;53.606;9.872;2023-06-14T12:13:09;25.90;99.90
13806;DHT22;6974;53.606;9.872;2023-06-14T12:15:36;25.80;99.90
13806;DHT22;6974;53.606;9.872;2023-06-14T12:18:05;25.80;99.90
13806;DHT22;6974;53.606;9.872;2023-06-14T12:20:33;25.90;99.90
13806;DHT22;6974;53.606;9.872;2023-06-14T12:23:04;26.20;99.90
13806;DHT22;6974;53.606;9.872;2023-06-14T12:25:33;26.20;99.90
13806;DHT22;6974;53.606;9.872;2023-06-14T12:28:04;26.10;99.90
13806;DHT22;6974;53.606;9.872;2023-06-14T12:30:32;26.20;99.90
13806;DHT22;6974;53.606;9.872;2023-06-14T12:32:59;26.20;99.90
13806;DHT22;6974;53.606;9.872;2023-06-14T12:35:26;26.40;99.90
13806;DHT22;6974;53.606;9.872;2023-06-14T12:37:52;26.40;99.90
13806;DHT22;6974;53.606;9.872;2023-06-14T12:40:21;26.60;99.90
13806;DHT22;6974;53.606;9.872;2023-06-14T12:42:47;26.70;99.90
13806;DHT22;6974;53.606;9.872;2023-06-14T12:45:15;26.90;99.90
13806;DHT22;6974;53.606;9.872;2023-06-14T12:47:42;27.00;99.90
13806;DHT22;6974;53.606;9.872;2023-06-14T12:50:09;27.10;99.90
13806;DHT22;6974;53.606;9.872;2023-06-14T12:52:36;27.30;99.90
13806;DHT22;6974;53.606;9.872;2023-06-14T12:55:03;27.40;99.90
13806;DHT22;6974;53.606;9.872;2023-06-14T12:57:32;27.50;99.90
13806;DHT22;6974;53.606;9.872;2023-06-14T13:00:02;27.70;99.90
13806;DHT22;6974;53.606;9.872;2023-06-14T13:02:29;27.80;99.90
13806;DHT22;6974;53.606;9.872;2023-06-14T13:04:56;27.90;99.90
13806;DHT22;6974;53.606;9.872;2023-06-14T13:07:24;28.00;99.90
13806;DHT22;6974;53.606;9.872;2023-06-14T13:09:51;27.80;99.90
13806;DHT22;6974;53.606;9.872;2023-06-14T13:12:17;27.70;99.90
13806;DHT22;6974;53.606;9.872;2023-06-14T13:14:46;27.70;99.90
13806;DHT22;6974;53.606;9.872;2023-06-14T13:17:13;27.80;99.90
13806;DHT22;6974;53.606;9.872;2023-06-14T13:19:40;27.70;99.90
13806;DHT22;6974;53.606;9.872;2023-06-14T13:22:07;27.60;99.90
13806;DHT22;6974;53.606;9.872;2023-06-14T13:24:35;27.70;99.90
13806;DHT22;6974;53.606;9.872;2023-06-14T13:27:02;27.60;99.90
13806;DHT22;6974;53.606;9.872;2023-06-14T13:29:29;27.70;99.90
13806;DHT22;6974;53.606;9.872;2023-06-14T13:31:57;27.70;99.90
13806;DHT22;6974;53.606;9.872;2023-06-14T13:34:25;27.80;99.90
13806;DHT22;6974;53.606;9.872;2023-06-14T13:36:52;27.90;99.90
13806;DHT22;6974;53.606;9.872;2023-06-14T13:39:19;28.00;99.90
13806;DHT22;6974;53.606;9.872;2023-06-14T13:41:46;28.00;99.90
13806;DHT22;6974;53.606;9.872;2023-06-14T13:44:13;28.00;99.90
13806;DHT22;6974;53.606;9.872;2023-06-14T13:46:41;27.90;99.90
13806;DHT22;6974;53.606;9.872;2023-06-14T13:49:11;27.60;99.10
13806;DHT22;6974;53.606;9.872;2023-06-14T13:51:38;27.20;99.70
13806;DHT22;6974;53.606;9.872;2023-06-14T13:54:05;27.00;99.90
13806;DHT22;6974;53.606;9.872;2023-06-14T13:56:32;26.70;99.90
13806;DHT22;6974;53.606;9.872;2023-06-14T13:58:59;26.60;99.90
13806;DHT22;6974;53.606;9.872;2023-06-14T14:01:26;26.60;99.90
13806;DHT22;6974;53.606;9.872;2023-06-14T14:03:54;26.80;99.90
13806;DHT22;6974;53.606;9.872;2023-06-14T14:06:22;26.80;99.90
13806;DHT22;6974;53.606;9.872;2023-06-14T14:08:49;26.70;99.80
13806;DHT22;6974;53.606;9.872;2023-06-14T14:11:16;26.60;99.10
13806;DHT22;6974;53.606;9.872;2023-06-14T14:13:43;26.40;99.10
13806;DHT22;6974;53.606;9.872;2023-06-14T14:16:10;26.30;99.90
13806;DHT22;6974;53.606;9.872;2023-06-14T14:18:37;26.40;99.80
13806;DHT22;6974;53.606;9.872;2023-06-14T14:21:04;26.70;99.80
13806;DHT22;6974;53.606;9.872;2023-06-14T14:23:32;26.90;99.20
13806;DHT22;6974;53.606;9.872;2023-06-14T14:25:59;27.00;98.00
13806;DHT22;6974;53.606;9.872;2023-06-14T14:28:29;26.90;98.30
13806;DHT22;6974;53.606;9.872;2023-06-14T14:30:56;26.90;98.60
13806;DHT22;6974;53.606;9.872;2023-06-14T14:33:22;27.10;98.30
13806;DHT22;6974;53.606;9.872;2023-06-14T14:35:49;27.20;97.20
13806;DHT22;6974;53.606;9.872;2023-06-14T14:38:16;27.30;97.90
13806;DHT22;6974;53.606;9.872;2023-06-14T14:40:45;27.50;98.20
13806;DHT22;6974;53.606;9.872;2023-06-14T14:43:11;27.70;98.00
13806;DHT22;6974;53.606;9.872;2023-06-14T14:45:38;27.90;97.30
13806;DHT22;6974;53.606;9.872;2023-06-14T14:48:05;28.00;96.10
13806;DHT22;6974;53.606;9.872;2023-06-14T14:50:32;28.00;96.20
13806;DHT22;6974;53.606;9.872;2023-06-14T14:52:59;27.90;95.90
13806;DHT22;6974;53.606;9.872;2023-06-14T14:55:26;27.90;96.00
13806;DHT22;6974;53.606;9.872;2023-06-14T14:57:54;27.90;96.00
13806;DHT22;6974;53.606;9.872;2023-06-14T15:00:21;27.50;95.60
13806;DHT22;6974;53.606;9.872;2023-06-14T15:02:48;27.30;96.00
13806;DHT22;6974;53.606;9.872;2023-06-14T15:05:15;27.20;96.50
13806;DHT22;6974;53.606;9.872;2023-06-14T15:07:42;27.20;95.70
13806;DHT22;6974;53.606;9.872;2023-06-14T15:10:10;27.20;96.50
13806;DHT22;6974;53.606;9.872;2023-06-14T15:12:37;27.40;96.60
13806;DHT22;6974;53.606;9.872;2023-06-14T15:15:06;27.50;96.90
13806;DHT22;6974;53.606;9.872;2023-06-14T15:17:35;27.60;95.70
13806;DHT22;6974;53.606;9.872;2023-06-14T15:20:02;27.50;96.10
13806;DHT22;6974;53.606;9.872;2023-06-14T15:22:28;27.50;95.50
13806;DHT22;6974;53.606;9.872;2023-06-14T15:24:55;27.50;94.90
13806;DHT22;6974;53.606;9.872;2023-06-14T15:27:22;27.50;95.30
13806;DHT22;6974;53.606;9.872;2023-06-14T15:29:50;27.30;95.10
13806;DHT22;6974;53.606;9.872;2023-06-14T15:32:18;27.30;95.10
13806;DHT22;6974;53.606;9.872;2023-06-14T15:34:45;27.30;95.00
13806;DHT22;6974;53.606;9.872;2023-06-14T15:37:12;27.40;95.10
13806;DHT22;6974;53.606;9.872;2023-06-14T15:39:38;27.40;94.60
13806;DHT22;6974;53.606;9.872;2023-06-14T15:42:06;27.50;94.10
13806;DHT22;6974;53.606;9.872;2023-06-14T15:44:33;27.40;94.30
13806;DHT22;6974;53.606;9.872;2023-06-14T15:47:02;27.40;94.60
13806;DHT22;6974;53.606;9.872;2023-06-14T15:49:30;27.50;94.80
13806;DHT22;6974;53.606;9.872;2023-06-14T15:51:57;27.50;94.00
13806;DHT22;6974;53.606;9.872;2023-06-14T15:54:24;27.60;94.30